Time;durP1;ratioP1;P1;durP2;ratioP2;P2;SDS_P1;SDS_P2;PMS_P1;PMS_P2;Temp;Humidity;BMP_temperature;BMP_pressure;BME280_temperature;BME280_humidity;BME280_pressure;Samples;Min_cycle;Max_cycle;Signal;HPM_P1;HPM_P2
2024/01/04 00:00:03;;;;;;;1.95;0.73;;;10.10;99.90;;;;;;4861401;29;20053;-66
2024/01/04 00:02:30;;;;;;;8.68;0.57;;;10.20;99.90;;;;;;4874471;29;20068;-67
2024/01/04 00:04:57;;;;;;;1.73;0.35;;;10.20;99.90;;;;;;4861216;29;20037;-65
2024/01/04 00:07:23;;;;;;;3.97;0.25;;;10.20;99.90;;;;;;4873408;29;20041;-67
2024/01/04 00:09:51;;;;;;;1.65;0.68;;;10.20;99.90;;;;;;4860249;29;20049;-67
2024/01/04 00:12:17;;;;;;;3.33;1.02;;;10.20;99.90;;;;;;4859713;29;20029;-67
2024/01/04 00:14:43;;;;;;;4.03;0.43;;;10.30;99.90;;;;;;4860267;29;20508;-67
2024/01/04 00:17:09;;;;;;;2.05;0.28;;;10.30;99.90;;;;;;4857888;29;20120;-68
2024/01/04 00:19:35;;;;;;;1.00;0.15;;;10.30;99.90;;;;;;4860553;29;20037;-67
2024/01/04 00:22:01;;;;;;;1.10;0.43;;;10.30;99.90;;;;;;4859764;29;20037;-67
2024/01/04 00:24:27;;;;;;;5.53;0.73;;;10.30;99.90;;;;;;4859489;29;20037;-67
2024/01/04 00:26:52;;;;;;;3.72;0.45;;;10.30;99.90;;;;;;4860609;29;20034;-67
2024/01/04 00:29:18;;;;;;;2.35;0.52;;;10.30;99.90;;;;;;4858550;29;20074;-67
2024/01/04 00:31:44;;;;;;;3.13;0.35;;;10.30;99.90;;;;;;4854999;29;20038;-67
2024/01/04 00:34:12;;;;;;;0.90;0.38;;;10.20;99.90;;;;;;4858539;29;20041;-67
2024/01/04 00:36:38;;;;;;;1.48;0.55;;;10.20;99.90;;;;;;4860632;29;20030;-67
2024/01/04 00:39:04;;;;;;;7.68;0.85;;;10.20;99.90;;;;;;4873618;29;20100;-67
2024/01/04 00:41:29;;;;;;;0.05;0.05;;;10.30;99.90;;;;;;4859920;29;20044;-67
2024/01/04 00:43:55;;;;;;;1.00;0.32;;;10.30;99.90;;;;;;4858846;29;20048;-67
2024/01/04 00:46:21;;;;;;;0.45;0.22;;;10.30;99.90;;;;;;4860791;29;20463;-67
2024/01/04 00:48:46;;;;;;;0.13;0.10;;;10.30;99.90;;;;;;4858362;29;20133;-67
2024/01/04 00:51:13;;;;;;;0.10;0.10;;;10.20;99.90;;;;;;4860797;29;20036;-67
2024/01/04 00:53:39;;;;;;;0.55;0.22;;;10.30;99.90;;;;;;4873079;29;20033;-67
2024/01/04 00:56:05;;;;;;;2.28;0.25;;;10.30;99.90;;;;;;4860347;29;20120;-67
2024/01/04 00:58:31;;;;;;;1.45;0.20;;;10.20;99.90;;;;;;4872982;29;20041;-67
2024/01/04 01:00:57;;;;;;;1.85;0.10;;;10.20;99.90;;;;;;4860352;29;20040;-67
2024/01/04 01:03:23;;;;;;;0.30;0.10;;;10.20;99.90;;;;;;4873319;29;20058;-67
2024/01/04 01:05:49;;;;;;;0.55;0.13;;;10.20;99.90;;;;;;4860553;29;20033;-67
2024/01/04 01:08:16;;;;;;;2.05;0.43;;;10.20;99.90;;;;;;4871735;29;20041;-67
2024/01/04 01:10:41;;;;;;;0.20;0.17;;;10.20;99.90;;;;;;4874090;29;20033;-67
2024/01/04 01:13:07;;;;;;;3.92;0.45;;;10.20;99.90;;;;;;4872827;29;20061;-67
2024/01/04 01:15:33;;;;;;;0.68;0.25;;;10.10;99.90;;;;;;4874611;29;20057;-67
2024/01/04 01:18:00;;;;;;;0.20;0.10;;;10.00;99.90;;;;;;4872309;29;20021;-67
2024/01/04 01:20:26;;;;;;;0.10;0.10;;;10.00;99.90;;;;;;4860256;29;20040;-67
2024/01/04 01:22:52;;;;;;;0.10;0.10;;;10.10;99.90;;;;;;4858068;29;20033;-67
2024/01/04 01:25:17;;;;;;;0.05;0.05;;;10.00;99.90;;;;;;4860261;29;20029;-67
2024/01/04 01:27:43;;;;;;;0.98;0.20;;;10.00;99.90;;;;;;4858148;29;20029;-67
2024/01/04 01:30:09;;;;;;;0.15;0.15;;;10.00;99.90;;;;;;4860158;29;20077;-67
2024/01/04 01:32:35;;;;;;;0.30;0.20;;;10.00;99.90;;;;;;4858000;29;20030;-67
2024/01/04 01:35:01;;;;;;;0.20;0.10;;;10.00;99.90;;;;;;4859813;29;20040;-68
2024/01/04 01:37:26;;;;;;;0.10;0.10;;;10.00;99.90;;;;;;4855270;29;20037;-66
2024/01/04 01:39:52;;;;;;;0.17;0.13;;;9.90;99.90;;;;;;4858693;29;20026;-66
2024/01/04 01:42:20;;;;;;;0.30;0.10;;;10.00;99.90;;;;;;4856403;29;20033;-67
2024/01/04 01:44:47;;;;;;;4.05;0.30;;;10.10;99.90;;;;;;4874395;29;20041;-66
2024/01/04 01:47:13;;;;;;;0.43;0.10;;;10.00;99.90;;;;;;4858222;29;20043;-66
2024/01/04 01:49:39;;;;;;;1.80;0.60;;;10.00;99.90;;;;;;4859694;29;20033;-66
2024/01/04 01:52:05;;;;;;;0.65;0.20;;;10.00;99.90;;;;;;4872516;29;20053;-66
2024/01/04 01:54:34;;;;;;;3.00;0.80;;;10.00;99.90;;;;;;4842918;29;20022;-66
2024/01/04 01:57:00;;;;;;;2.40;0.45;;;9.90;99.90;;;;;;4871775;29;20029;-66
2024/01/04 01:59:27;;;;;;;2.20;0.47;;;9.90;99.90;;;;;;4858234;29;20574;-66
2024/01/04 02:01:56;;;;;;;1.30;0.38;;;9.90;99.90;;;;;;4871934;29;20398;-66
2024/01/04 02:04:22;;;;;;;2.70;0.10;;;10.00;99.90;;;;;;4856014;29;20058;-66
2024/01/04 02:06:47;;;;;;;2.85;0.55;;;10.10;99.90;;;;;;4865842;29;20061;-67
2024/01/04 02:09:13;;;;;;;1.02;0.38;;;10.10;99.90;;;;;;4859176;29;20645;-66
2024/01/04 02:11:41;;;;;;;0.43;0.30;;;10.10;99.90;;;;;;4858180;29;20030;-66
2024/01/04 02:14:06;;;;;;;1.27;0.40;;;10.10;99.90;;;;;;4857847;29;20025;-66
2024/01/04 02:16:32;;;;;;;2.10;0.30;;;10.10;99.90;;;;;;4858197;29;20034;-66
2024/01/04 02:18:58;;;;;;;0.65;0.32;;;10.10;99.90;;;;;;4871443;29;20033;-67
2024/01/04 02:21:24;;;;;;;0.85;0.32;;;10.20;99.90;;;;;;4851888;29;20394;-66
2024/01/04 02:23:50;;;;;;;1.67;0.45;;;10.20;99.90;;;;;;4855992;29;20382;-67
2024/01/04 02:26:16;;;;;;;7.45;0.73;;;10.20;99.90;;;;;;4869620;29;20570;-67
2024/01/04 02:28:42;;;;;;;4.97;0.63;;;10.20;99.90;;;;;;4854751;29;20026;-66
2024/01/04 02:31:07;;;;;;;1.60;0.50;;;10.20;99.90;;;;;;4873094;29;20041;-67
2024/01/04 02:33:33;;;;;;;1.13;0.25;;;10.30;99.90;;;;;;4852681;29;20414;-67
2024/01/04 02:35:59;;;;;;;1.88;0.40;;;10.30;99.90;;;;;;4856486;29;20042;-67
2024/01/04 02:38:27;;;;;;;7.88;0.35;;;10.30;99.90;;;;;;4867867;29;20120;-66
2024/01/04 02:40:53;;;;;;;1.67;0.13;;;10.20;99.90;;;;;;4854137;29;20026;-67
2024/01/04 02:43:19;;;;;;;2.13;0.95;;;10.30;99.90;;;;;;4872899;29;20518;-66
2024/01/04 02:45:45;;;;;;;0.38;0.35;;;10.20;99.90;;;;;;4869025;29;20034;-67
2024/01/04 02:48:10;;;;;;;0.47;0.22;;;10.20;99.90;;;;;;4857756;29;20077;-67
2024/01/04 02:50:36;;;;;;;0.10;0.10;;;10.20;99.90;;;;;;4868092;29;20041;-67
2024/01/04 02:53:02;;;;;;;0.00;0.00;;;10.20;99.90;;;;;;4857665;29;20146;-67
2024/01/04 02:55:28;;;;;;;0.60;0.30;;;10.20;99.90;;;;;;4848954;29;20038;-67
2024/01/04 02:57:53;;;;;;;1.65;0.30;;;10.10;99.90;;;;;;4857946;29;20033;-67
2024/01/04 03:00:20;;;;;;;1.13;0.43;;;10.10;99.90;;;;;;4871485;29;20035;-67
2024/01/04 03:02:45;;;;;;;0.10;0.10;;;10.10;99.90;;;;;;4858390;29;20053;-67
2024/01/04 03:05:11;;;;;;;5.05;0.22;;;10.10;99.90;;;;;;4856015;29;20467;-67
2024/01/04 03:07:37;;;;;;;1.02;0.35;;;10.00;99.90;;;;;;4872409;29;20072;-67
2024/01/04 03:10:03;;;;;;;0.10;0.10;;;10.00;99.90;;;;;;4865702;29;20423;-67
2024/01/04 03:12:29;;;;;;;0.57;0.13;;;10.00;99.90;;;;;;4872317;29;20032;-66
2024/01/04 03:14:55;;;;;;;0.10;0.10;;;10.00;99.90;;;;;;4858013;29;20022;-66
2024/01/04 03:17:21;;;;;;;3.55;0.20;;;9.90;99.90;;;;;;4872129;29;20030;-66
2024/01/04 03:34:30;;;;;;;0.10;0.10;;;9.90;99.90;;;;;;4848522;29;20594;-66
2024/01/04 03:36:56;;;;;;;0.10;0.10;;;9.90;99.90;;;;;;4860800;29;20128;-67
2024/01/04 03:39:24;;;;;;;3.85;0.40;;;9.90;99.90;;;;;;4847764;29;20045;-67
2024/01/04 03:41:50;;;;;;;0.00;0.00;;;9.90;99.90;;;;;;4829738;29;20038;-67
2024/01/04 03:44:16;;;;;;;0.00;0.00;;;9.90;99.90;;;;;;4846591;29;20033;-67
2024/01/04 03:46:44;;;;;;;1.67;0.40;;;9.90;99.90;;;;;;4847477;29;20617;-67
2024/01/04 03:49:11;;;;;;;4.07;0.35;;;9.90;99.90;;;;;;4861679;29;20049;-67
2024/01/04 03:51:36;;;;;;;0.10;0.10;;;9.90;99.90;;;;;;4848475;29;20652;-67
2024/01/04 03:54:03;;;;;;;2.72;0.15;;;9.90;99.90;;;;;;4847643;29;20124;-67
2024/01/04 03:56:28;;;;;;;0.30;0.28;;;10.00;99.90;;;;;;4847162;29;20400;-67
2024/01/04 03:58:54;;;;;;;0.77;0.38;;;9.90;99.90;;;;;;4861870;29;20041;-67
2024/01/04 04:01:20;;;;;;;2.00;0.30;;;9.90;99.90;;;;;;4846827;29;20053;-67
2024/01/04 04:03:45;;;;;;;3.53;0.88;;;9.90;99.90;;;;;;4847125;29;20425;-66
2024/01/04 04:06:11;;;;;;;0.68;0.20;;;9.90;99.90;;;;;;4846311;29;20044;-67
2024/01/04 04:08:37;;;;;;;0.70;0.70;;;9.90;99.90;;;;;;4846325;29;20037;-66
2024/01/04 04:11:03;;;;;;;0.95;0.40;;;9.90;99.90;;;;;;4846537;29;20064;-66
2024/01/04 04:13:32;;;;;;;0.70;0.10;;;9.90;99.90;;;;;;4847196;29;20780;-66
2024/01/04 04:15:58;;;;;;;0.77;0.77;;;9.90;99.90;;;;;;4844470;29;20052;-66
2024/01/04 05:02:33;;;;;;;0.13;0.13;;;9.90;99.90;;;;;;4857835;29;20029;-66
2024/01/04 05:12:45;;;;;;;0.35;0.17;;;9.90;99.90;;;;;;5614693;23;20061;-62
2024/01/04 05:22:32;;;;;;;1.00;0.25;;;10.00;99.90;;;;;;4857165;29;20433;-62
2024/01/04 05:24:58;;;;;;;0.10;0.10;;;10.00;99.90;;;;;;4860526;29;20117;-61
2024/01/04 05:38:22;;;;;;;0.35;0.28;;;9.90;99.90;;;;;;4841276;29;20061;-61
2024/01/04 05:40:48;;;;;;;0.80;0.20;;;9.80;99.90;;;;;;4840458;29;20030;-61
2024/01/04 05:43:14;;;;;;;1.08;0.30;;;9.80;99.90;;;;;;4841150;29;20056;-61
2024/01/04 05:45:39;;;;;;;3.53;0.52;;;9.80;99.90;;;;;;4839350;29;20038;-60
2024/01/04 05:48:08;;;;;;;0.88;0.35;;;9.90;99.90;;;;;;4841700;29;20034;-61
2024/01/04 05:50:33;;;;;;;0.15;0.13;;;9.90;99.90;;;;;;4840283;29;20065;-60
2024/01/04 05:52:59;;;;;;;0.98;0.30;;;10.00;99.90;;;;;;4840342;29;20407;-61
2024/01/04 06:32:39;;;;;;;0.60;0.20;;;9.90;99.90;;;;;;4838611;29;20749;-62
2024/01/04 06:49:48;;;;;;;0.00;0.00;;;9.90;99.90;;;;;;4839955;29;20038;-62
2024/01/04 06:52:14;;;;;;;0.25;0.10;;;9.90;99.90;;;;;;4839821;29;20505;-62
2024/01/04 06:54:40;;;;;;;0.10;0.10;;;9.90;99.90;;;;;;4838579;29;20559;-62
2024/01/04 06:57:06;;;;;;;0.55;0.20;;;9.90;99.90;;;;;;4840684;29;20034;-62
2024/01/04 06:59:34;;;;;;;3.78;0.20;;;9.80;99.90;;;;;;4839440;29;20033;-62
2024/01/04 07:02:00;;;;;;;0.10;0.10;;;9.80;99.90;;;;;;4835050;29;20132;-62
2024/01/04 07:04:25;;;;;;;0.60;0.30;;;9.80;99.90;;;;;;4840142;29;20137;-62
2024/01/04 07:06:51;;;;;;;1.40;0.22;;;9.80;99.90;;;;;;4840507;29;20037;-62
2024/01/04 07:09:17;;;;;;;1.10;0.32;;;9.80;99.90;;;;;;4843872;29;20037;-62
2024/01/04 07:11:43;;;;;;;1.48;0.10;;;9.80;99.90;;;;;;4843364;29;20030;-62
2024/01/04 07:14:09;;;;;;;0.10;0.10;;;9.80;99.90;;;;;;4843832;29;20363;-62
2024/01/04 07:16:45;;;;;;;1.20;0.22;;;9.80;99.90;;;;;;4843239;29;20069;-62
2024/01/04 07:19:13;;;;;;;0.35;0.30;;;9.80;99.90;;;;;;4857746;29;20041;-63
2024/01/04 07:21:42;;;;;;;0.32;0.22;;;9.80;99.90;;;;;;4840820;29;20034;-61
2024/01/04 07:24:08;;;;;;;5.28;0.43;;;9.80;99.90;;;;;;4841252;29;20445;-61
2024/01/04 07:26:33;;;;;;;2.50;0.22;;;9.80;99.90;;;;;;4842690;29;20049;-63
2024/01/04 07:29:00;;;;;;;1.95;0.70;;;9.80;99.90;;;;;;4843445;29;20106;-61
2024/01/04 07:31:26;;;;;;;3.92;0.47;;;9.80;99.90;;;;;;4840187;29;20101;-62
2024/01/04 07:33:52;;;;;;;2.20;0.38;;;9.70;99.90;;;;;;4843246;29;20026;-62
2024/01/04 07:36:17;;;;;;;0.45;0.30;;;9.80;99.90;;;;;;4842350;29;20506;-62
2024/01/04 07:38:43;;;;;;;0.20;0.10;;;9.70;99.90;;;;;;4842823;29;20076;-61
2024/01/04 07:41:09;;;;;;;0.50;0.40;;;9.70;99.90;;;;;;4842934;29;20066;-63
2024/01/04 07:43:35;;;;;;;2.95;0.40;;;9.50;99.90;;;;;;4856921;29;20509;-63
2024/01/04 07:46:03;;;;;;;0.55;0.30;;;9.30;99.90;;;;;;4842827;29;20033;-64
2024/01/04 07:48:29;;;;;;;7.85;0.45;;;9.10;99.90;;;;;;4843043;29;20042;-63
2024/01/04 07:50:57;;;;;;;1.60;0.45;;;8.90;99.90;;;;;;4855125;29;20383;-63
2024/01/04 07:53:25;;;;;;;0.52;0.28;;;8.90;99.90;;;;;;4842771;29;20030;-64
2024/01/04 07:55:50;;;;;;;0.73;0.20;;;8.90;99.90;;;;;;4842094;29;20040;-64
2024/01/04 07:58:16;;;;;;;0.15;0.15;;;8.90;99.90;;;;;;4837731;29;20049;-63
2024/01/04 08:00:42;;;;;;;0.40;0.10;;;8.80;99.90;;;;;;4839607;29;20083;-64
2024/01/04 08:03:07;;;;;;;0.22;0.20;;;8.80;99.90;;;;;;4842857;29;20042;-63
2024/01/04 08:05:33;;;;;;;0.40;0.30;;;8.70;99.90;;;;;;4841457;29;20038;-63
2024/01/04 08:07:59;;;;;;;0.47;0.22;;;8.70;99.90;;;;;;4855929;29;20124;-65
2024/01/04 08:10:24;;;;;;;0.22;0.17;;;8.70;99.90;;;;;;4841913;29;20383;-65
2024/01/04 08:12:50;;;;;;;0.77;0.45;;;8.70;99.90;;;;;;4842282;29;20117;-64
2024/01/04 08:15:16;;;;;;;1.88;1.00;;;8.70;99.90;;;;;;4841343;29;20050;-64
2024/01/04 08:17:42;;;;;;;0.30;0.20;;;8.70;99.90;;;;;;4842184;29;20034;-64
2024/01/04 08:20:09;;;;;;;8.02;1.20;;;8.70;99.90;;;;;;4841646;29;20412;-66
2024/01/04 08:22:35;;;;;;;0.95;0.35;;;8.80;99.90;;;;;;4841784;29;20114;-67
2024/01/04 08:25:04;;;;;;;2.58;0.52;;;8.80;99.90;;;;;;4841335;29;20117;-66
2024/01/04 08:27:30;;;;;;;9.73;0.57;;;8.70;99.90;;;;;;4855890;29;20044;-66
2024/01/04 08:29:55;;;;;;;0.47;0.22;;;8.70;99.90;;;;;;4839679;29;20394;-66
2024/01/04 08:32:21;;;;;;;16.55;0.70;;;8.80;99.90;;;;;;4841741;29;20049;-67
2024/01/04 08:34:47;;;;;;;2.65;1.10;;;8.80;99.90;;;;;;4855020;29;20033;-66
2024/01/04 08:37:14;;;;;;;0.88;0.50;;;8.80;99.90;;;;;;4842375;29;20127;-66
2024/01/04 08:39:40;;;;;;;5.15;1.55;;;8.90;99.90;;;;;;4841110;29;20048;-66
2024/01/04 08:42:06;;;;;;;2.47;0.93;;;8.90;99.90;;;;;;4841088;29;20510;-67
2024/01/04 08:44:32;;;;;;;5.40;0.40;;;8.90;99.90;;;;;;4840772;29;20042;-65
2024/01/04 08:47:00;;;;;;;0.77;0.40;;;8.90;99.90;;;;;;4841863;29;20045;-65
2024/01/04 08:49:26;;;;;;;0.10;0.10;;;9.00;99.90;;;;;;4840947;29;20120;-66
2024/01/04 08:51:52;;;;;;;10.73;0.88;;;9.00;99.90;;;;;;4842091;29;20049;-66
2024/01/04 08:54:17;;;;;;;2.65;0.40;;;9.00;99.90;;;;;;4855247;29;20475;-66
2024/01/04 08:56:43;;;;;;;10.40;0.75;;;9.00;99.90;;;;;;4856254;29;20026;-66
2024/01/04 08:59:09;;;;;;;5.78;0.82;;;9.10;99.90;;;;;;4840978;29;20108;-66
2024/01/04 09:01:34;;;;;;;2.30;0.32;;;9.10;99.90;;;;;;4856000;29;20041;-66
2024/01/04 09:04:01;;;;;;;6.45;0.70;;;9.10;99.90;;;;;;4841332;29;20037;-66
2024/01/04 09:06:28;;;;;;;0.52;0.30;;;9.20;99.90;;;;;;4841805;29;20471;-66
2024/01/04 09:08:54;;;;;;;0.90;0.50;;;9.20;99.90;;;;;;4854600;29;20045;-65
2024/01/04 09:11:20;;;;;;;0.77;0.38;;;9.20;99.90;;;;;;4841379;29;20034;-67
2024/01/04 09:13:47;;;;;;;0.20;0.17;;;9.20;99.90;;;;;;4840800;29;20497;-66
2024/01/04 09:16:13;;;;;;;2.60;1.02;;;9.20;99.90;;;;;;4841518;29;20053;-65
2024/01/04 09:22:19;;;;;;;2.80;0.50;;;9.30;99.90;;;;;;4838271;29;20044;-66
2024/01/04 09:24:45;;;;;;;0.90;0.65;;;9.30;99.90;;;;;;4840964;29;20105;-65
2024/01/04 09:27:14;;;;;;;8.32;1.27;;;9.30;99.90;;;;;;4855346;29;20036;-65
2024/01/04 09:29:41;;;;;;;10.73;0.55;;;9.30;99.90;;;;;;4839648;29;20038;-66
2024/01/04 09:32:07;;;;;;;1.42;0.70;;;9.30;99.90;;;;;;4841013;29;20432;-65
2024/01/04 09:34:32;;;;;;;0.57;0.22;;;9.30;99.90;;;;;;4836704;29;20046;-65
2024/01/04 09:37:00;;;;;;;6.90;1.27;;;9.40;99.90;;;;;;4841367;29;20030;-65
2024/01/04 09:39:26;;;;;;;4.18;0.50;;;9.40;99.90;;;;;;4840466;29;20456;-66
2024/01/04 09:41:56;;;;;;;1.33;0.55;;;9.40;99.90;;;;;;4841041;29;20034;-65
2024/01/04 09:44:24;;;;;;;1.58;0.28;;;9.40;99.90;;;;;;4861267;29;20125;-65
2024/01/04 09:46:55;;;;;;;2.47;1.00;;;9.50;99.90;;;;;;4841208;29;20040;-65
2024/01/04 09:49:21;;;;;;;4.70;0.93;;;9.50;99.90;;;;;;4840116;29;20050;-65
2024/01/04 09:51:47;;;;;;;6.88;0.93;;;9.60;99.90;;;;;;4841134;29;20042;-65
2024/01/04 09:54:16;;;;;;;6.82;1.42;;;9.60;99.90;;;;;;4854211;29;20034;-66
2024/01/04 09:56:44;;;;;;;6.78;0.75;;;9.60;99.90;;;;;;4838798;29;20117;-66
2024/01/04 09:59:10;;;;;;;4.72;1.10;;;9.60;99.90;;;;;;4851308;29;20038;-65
2024/01/04 10:01:38;;;;;;;10.20;1.45;;;9.60;99.90;;;;;;4854062;29;20058;-66
2024/01/04 10:04:16;;;;;;;6.90;1.48;;;9.50;99.90;;;;;;4839629;29;20034;-66
2024/01/04 10:06:44;;;;;;;13.77;1.10;;;9.50;99.90;;;;;;4854568;29;20029;-66
2024/01/04 10:09:31;;;;;;;13.00;2.58;;;9.50;99.90;;;;;;4851495;29;20033;-66
2024/01/04 10:11:57;;;;;;;1.63;0.65;;;9.50;99.90;;;;;;4834995;29;20057;-67
2024/01/04 10:14:27;;;;;;;1.67;0.32;;;9.40;99.90;;;;;;4839679;29;20077;-67
2024/01/04 10:16:59;;;;;;;4.22;0.47;;;9.50;99.90;;;;;;4854832;29;20029;-67
2024/01/04 10:19:26;;;;;;;7.38;0.90;;;9.50;99.90;;;;;;4852990;29;20068;-71
2024/01/04 10:21:52;;;;;;;6.78;0.93;;;9.50;99.90;;;;;;4854369;29;20026;-67
2024/01/04 10:24:25;;;;;;;5.38;0.85;;;9.50;99.90;;;;;;4853962;29;20479;-67
2024/01/04 10:27:00;;;;;;;8.20;1.45;;;9.50;99.90;;;;;;4840623;29;20038;-67
2024/01/04 10:29:28;;;;;;;6.43;0.75;;;9.50;99.90;;;;;;4853633;29;20086;-65
2024/01/04 10:32:03;;;;;;;0.55;0.50;;;9.50;99.90;;;;;;4854286;29;20026;-66
2024/01/04 10:34:31;;;;;;;12.80;1.50;;;9.50;99.90;;;;;;4834194;29;20030;-65
2024/01/04 10:37:12;;;;;;;2.33;0.70;;;9.50;99.90;;;;;;4829141;29;20030;-65
2024/01/04 10:39:40;;;;;;;0.52;0.25;;;9.50;99.90;;;;;;4840887;29;20033;-66
2024/01/04 10:42:08;;;;;;;3.42;1.65;;;9.70;99.90;;;;;;4850944;29;20049;-65
2024/01/04 10:44:34;;;;;;;8.77;0.85;;;9.70;99.90;;;;;;4864711;29;20488;-64
2024/01/04 10:47:05;;;;;;;2.78;0.65;;;9.80;99.90;;;;;;4839585;29;20034;-66
2024/01/04 10:49:31;;;;;;;6.05;0.30;;;9.80;99.90;;;;;;4857939;29;20045;-65
2024/01/04 10:51:58;;;;;;;2.33;0.55;;;9.90;99.90;;;;;;4848134;29;20034;-65
2024/01/04 10:54:33;;;;;;;5.80;1.15;;;9.90;99.90;;;;;;4843633;29;20033;-66
2024/01/04 10:57:00;;;;;;;4.75;0.82;;;9.90;99.90;;;;;;4852126;29;20030;-66
2024/01/04 10:59:32;;;;;;;2.10;0.73;;;10.00;99.90;;;;;;4857570;29;20160;-64
2024/01/04 11:01:58;;;;;;;;;;;10.00;99.90;;;;;;4837983;29;20042;-64
2024/01/04 11:04:26;;;;;;;0.63;0.40;;;10.00;99.90;;;;;;4843532;29;20377;-65
2024/01/04 11:06:52;;;;;;;3.78;1.00;;;10.00;99.90;;;;;;4857498;29;20390;-64
2024/01/04 11:09:23;;;;;;;5.40;1.05;;;10.10;99.90;;;;;;4857706;29;20030;-66
2024/01/04 11:11:54;;;;;;;4.00;1.23;;;10.10;99.90;;;;;;4853762;29;20041;-66
2024/01/04 11:14:24;;;;;;;2.35;1.13;;;10.10;99.90;;;;;;4860466;29;20041;-66
2024/01/04 11:17:28;;;;;;;12.88;1.27;;;10.20;99.90;;;;;;4851210;29;20026;-67
2024/01/04 11:20:35;;;;;;;6.53;1.08;;;10.30;99.90;;;;;;4855455;29;20487;-67
2024/01/04 11:23:45;;;;;;;12.70;1.08;;;10.40;99.90;;;;;;4855498;29;20081;-67
2024/01/04 11:26:27;;;;;;;1.55;0.65;;;10.40;99.90;;;;;;4839043;29;20041;-67
2024/01/04 11:28:56;;;;;;;2.17;0.52;;;10.40;99.90;;;;;;4854785;29;20367;-67
2024/01/04 11:31:25;;;;;;;2.83;0.70;;;10.60;99.90;;;;;;4841046;29;20038;-67
2024/01/04 11:33:51;;;;;;;0.82;0.52;;;10.70;99.90;;;;;;4857254;29;20041;-67
2024/01/04 11:36:21;;;;;;;1.98;0.45;;;10.80;99.90;;;;;;4842917;29;20034;-67
2024/01/04 11:38:48;;;;;;;3.50;0.77;;;10.80;99.90;;;;;;4841372;29;20034;-67
2024/01/04 11:41:14;;;;;;;5.63;0.68;;;10.80;99.90;;;;;;4842615;29;20040;-67
2024/01/04 11:43:43;;;;;;;2.20;1.10;;;10.60;99.90;;;;;;4854896;29;20025;-67
2024/01/04 11:46:23;;;;;;;2.33;1.38;;;10.40;99.90;;;;;;4842354;29;20113;-67
2024/01/04 11:49:00;;;;;;;3.05;0.60;;;10.30;99.90;;;;;;4849598;29;20767;-67
2024/01/04 11:51:45;;;;;;;4.10;1.30;;;10.30;99.90;;;;;;4837449;29;20074;-67
2024/01/04 11:54:13;;;;;;;3.65;0.57;;;10.30;99.90;;;;;;4852494;29;20034;-67
2024/01/04 11:56:40;;;;;;;11.15;1.10;;;10.30;99.90;;;;;;4841073;29;20082;-67
2024/01/04 11:59:15;;;;;;;2.65;0.77;;;10.30;99.90;;;;;;4851995;29;20026;-67
2024/01/04 12:01:43;;;;;;;5.93;0.52;;;10.40;99.90;;;;;;4840615;29;20113;-67
2024/01/04 12:04:11;;;;;;;5.97;0.93;;;10.60;99.90;;;;;;4841191;29;20120;-67
2024/01/04 12:06:40;;;;;;;2.63;0.80;;;10.50;99.90;;;;;;4840242;29;20052;-67
2024/01/04 12:09:12;;;;;;;0.73;0.40;;;10.40;99.90;;;;;;4840587;29;20491;-67
2024/01/04 12:11:40;;;;;;;0.28;0.20;;;10.30;99.90;;;;;;4841003;29;20041;-67
2024/01/04 12:14:08;;;;;;;0.20;0.20;;;10.60;99.90;;;;;;4840886;29;20394;-67
2024/01/04 12:16:34;;;;;;;6.65;0.70;;;11.60;99.90;;;;;;4854471;29;20030;-67
2024/01/04 12:19:03;;;;;;;3.00;0.50;;;12.70;99.90;;;;;;4841930;29;20543;-67
2024/01/04 12:21:29;;;;;;;4.45;0.65;;;12.60;99.90;;;;;;4838081;29;20034;-67
2024/01/04 12:23:55;;;;;;;3.78;0.68;;;13.40;99.90;;;;;;4855989;29;20033;-67
2024/01/04 12:26:23;;;;;;;3.83;0.38;;;12.90;99.90;;;;;;4840015;29;20064;-67
2024/01/04 12:28:53;;;;;;;2.70;0.45;;;12.60;99.90;;;;;;4855822;29;20062;-67
2024/01/04 12:31:25;;;;;;;9.68;0.70;;;12.20;99.90;;;;;;4840092;29;20116;-67
2024/01/04 12:33:57;;;;;;;12.07;1.73;;;11.70;99.90;;;;;;4850493;29;20049;-67
2024/01/04 12:36:24;;;;;;;7.00;1.80;;;11.90;99.90;;;;;;4839184;29;20041;-67
2024/01/04 12:39:05;;;;;;;7.88;0.93;;;11.70;99.90;;;;;;4841275;29;20106;-67
2024/01/04 12:41:30;;;;;;;7.95;0.52;;;11.90;99.90;;;;;;4852430;29;20500;-67
2024/01/04 12:43:57;;;;;;;7.80;0.82;;;11.80;99.90;;;;;;4840910;29;20145;-67
2024/01/04 12:46:23;;;;;;;9.98;0.93;;;11.70;99.90;;;;;;4853753;29;20114;-67
2024/01/04 12:48:52;;;;;;;10.13;0.90;;;12.10;99.90;;;;;;4855729;29;21132;-67
2024/01/04 12:51:28;;;;;;;2.50;0.43;;;12.50;99.90;;;;;;4841161;29;20065;-67
2024/01/04 12:53:54;;;;;;;2.05;0.38;;;12.60;99.90;;;;;;4851561;29;20030;-67
2024/01/04 12:56:20;;;;;;;5.63;0.55;;;12.80;99.90;;;;;;4821224;29;20110;-67
2024/01/04 12:58:46;;;;;;;4.25;1.00;;;12.90;99.90;;;;;;4855410;29;20498;-67
2024/01/04 13:01:12;;;;;;;4.22;0.70;;;12.70;99.90;;;;;;4853070;29;20178;-67
2024/01/04 13:03:38;;;;;;;6.45;0.75;;;12.10;99.90;;;;;;4849665;29;20109;-67
2024/01/04 13:06:04;;;;;;;6.97;1.27;;;12.00;99.90;;;;;;4840676;29;20050;-67
2024/01/04 13:08:30;;;;;;;3.08;1.27;;;12.10;99.90;;;;;;4839507;29;20452;-67
2024/01/04 13:10:56;;;;;;;2.47;0.63;;;12.30;99.90;;;;;;4839524;29;20049;-67
2024/01/04 13:13:27;;;;;;;4.90;0.85;;;12.00;99.90;;;;;;4841801;29;20086;-67
2024/01/04 13:15:52;;;;;;;3.97;0.60;;;11.80;99.90;;;;;;4840462;29;20030;-67
2024/01/04 13:18:18;;;;;;;1.75;0.40;;;11.40;99.90;;;;;;4841726;29;20628;-68
2024/01/04 13:20:45;;;;;;;6.32;1.30;;;11.00;99.90;;;;;;4839252;29;20067;-67
2024/01/04 13:23:11;;;;;;;2.67;0.73;;;10.90;99.90;;;;;;4841359;29;20477;-67
2024/01/04 13:25:36;;;;;;;1.65;0.73;;;10.70;99.90;;;;;;4836184;29;20046;-67
2024/01/04 13:28:03;;;;;;;3.13;1.08;;;10.60;99.90;;;;;;4836779;29;20113;-67
2024/01/04 13:30:29;;;;;;;7.95;1.40;;;10.50;99.90;;;;;;4839668;29;20102;-67
2024/01/04 13:32:55;;;;;;;2.22;0.90;;;10.60;99.90;;;;;;4855017;29;20038;-67
2024/01/04 13:35:24;;;;;;;3.90;0.93;;;11.00;99.90;;;;;;4854607;29;20034;-67
2024/01/04 13:37:50;;;;;;;1.13;0.90;;;11.50;99.90;;;;;;4840722;29;20102;-67
2024/01/04 13:40:16;;;;;;;1.15;0.68;;;11.50;99.90;;;;;;4840492;29;20086;-67
2024/01/04 13:42:45;;;;;;;1.45;0.38;;;11.30;99.90;;;;;;4855222;29;20052;-66
2024/01/04 13:45:11;;;;;;;0.70;0.30;;;11.10;99.90;;;;;;4839551;29;20038;-68
2024/01/04 13:47:37;;;;;;;2.08;0.68;;;11.00;99.90;;;;;;4840949;29;20034;-67
2024/01/04 13:50:03;;;;;;;2.40;0.70;;;10.80;99.90;;;;;;4838442;29;20505;-67
2024/01/04 13:52:29;;;;;;;2.03;0.47;;;10.50;99.90;;;;;;4854650;29;20050;-67
2024/01/04 13:54:55;;;;;;;2.58;0.85;;;10.40;99.90;;;;;;4852995;29;20103;-67
2024/01/04 13:57:22;;;;;;;1.98;0.60;;;10.30;99.90;;;;;;4840920;29;20055;-66
2024/01/04 13:59:48;;;;;;;3.40;0.55;;;10.50;99.90;;;;;;4840391;29;20086;-65
2024/01/04 14:02:15;;;;;;;2.00;1.35;;;10.80;99.90;;;;;;4854769;29;20034;-66
2024/01/04 14:04:41;;;;;;;2.90;0.65;;;11.00;99.90;;;;;;4839915;29;20580;-66
2024/01/04 14:07:10;;;;;;;0.17;0.17;;;11.00;99.90;;;;;;4840886;29;20094;-66
2024/01/04 14:09:35;;;;;;;1.45;0.45;;;10.90;99.90;;;;;;4839716;29;20403;-66
2024/01/04 14:12:03;;;;;;;0.30;0.30;;;10.60;99.90;;;;;;4854378;29;20041;-66
2024/01/04 14:14:28;;;;;;;6.63;1.02;;;10.30;99.90;;;;;;4837759;29;20759;-66
2024/01/04 14:16:54;;;;;;;1.38;0.30;;;10.20;99.90;;;;;;4839613;29;20111;-67
2024/01/04 14:19:20;;;;;;;3.00;1.75;;;10.00;99.90;;;;;;4838331;29;20038;-67
2024/01/04 14:21:46;;;;;;;0.20;0.20;;;10.10;99.90;;;;;;4827009;29;20038;-67
2024/01/04 14:24:12;;;;;;;1.27;0.32;;;10.40;99.90;;;;;;4837833;29;20038;-67
2024/01/04 14:26:37;;;;;;;1.65;0.50;;;10.60;99.90;;;;;;4845962;29;20619;-67
2024/01/04 14:29:03;;;;;;;1.23;0.30;;;10.70;99.90;;;;;;4832839;29;20701;-68
2024/01/04 14:31:29;;;;;;;2.15;0.70;;;10.60;99.90;;;;;;4852376;29;20069;-68
2024/01/04 14:33:55;;;;;;;2.53;1.05;;;10.60;99.90;;;;;;4836668;29;20046;-67
2024/01/04 14:36:21;;;;;;;4.70;1.10;;;10.40;99.90;;;;;;4854117;29;20060;-67
2024/01/04 14:38:48;;;;;;;6.82;0.75;;;10.50;99.90;;;;;;4839844;29;20034;-67
2024/01/04 14:41:15;;;;;;;2.05;0.80;;;10.80;99.90;;;;;;4854414;29;20370;-67
2024/01/04 14:43:41;;;;;;;2.05;0.98;;;11.10;99.90;;;;;;4852540;29;20046;-67
2024/01/04 14:46:07;;;;;;;7.68;0.88;;;11.10;99.90;;;;;;4854635;29;20034;-67
2024/01/04 14:48:33;;;;;;;10.27;0.70;;;11.20;99.90;;;;;;4839622;29;20095;-67
2024/01/04 14:50:59;;;;;;;2.05;0.47;;;11.00;99.90;;;;;;4840518;29;20087;-67
2024/01/04 14:53:24;;;;;;;3.00;0.68;;;10.80;99.90;;;;;;4838788;29;20390;-67
2024/01/04 14:55:50;;;;;;;5.57;0.85;;;10.80;99.90;;;;;;4840119;29;20034;-67
2024/01/04 14:58:16;;;;;;;4.03;0.52;;;10.80;99.90;;;;;;4839688;29;20040;-67
2024/01/04 15:00:41;;;;;;;5.05;0.30;;;10.40;99.90;;;;;;4839300;29;20021;-67
2024/01/04 15:03:07;;;;;;;3.35;0.30;;;10.20;99.90;;;;;;4854329;29;20086;-67
2024/01/04 15:05:33;;;;;;;5.40;1.60;;;10.00;99.90;;;;;;4839422;29;20106;-67
2024/01/04 15:08:02;;;;;;;0.95;0.47;;;9.90;99.90;;;;;;4840417;29;20040;-67
2024/01/04 15:10:28;;;;;;;2.75;0.95;;;9.80;99.90;;;;;;4852556;29;20455;-66